Time;durP1;ratioP1;P1;durP2;ratioP2;P2;SDS_P1;SDS_P2;PMS_P1;PMS_P2;Temp;Humidity;BMP_temperature;BMP_pressure;BME280_temperature;BME280_humidity;BME280_pressure;Samples;Min_cycle;Max_cycle;Signal;HPM_P1;HPM_P2
2021/10/23 00:00:55;;;;;;;3.50;1.15;;;;;;;8.35;76.52;99588.16;5049384;28;20506;-68
2021/10/23 00:03:20;;;;;;;5.68;1.30;;;;;;;8.39;76.26;99599.44;5037169;28;20025;-68
2021/10/23 00:05:46;;;;;;;7.40;1.20;;;;;;;8.36;77.23;99600.63;5042737;28;20063;-68
2021/10/23 00:08:11;;;;;;;5.95;1.23;;;;;;;8.34;77.59;99599.94;5031682;28;20489;-68
2021/10/23 00:10:36;;;;;;;4.95;1.23;;;;;;;8.24;78.11;99607.38;5040009;28;20029;-68
2021/10/23 00:13:02;;;;;;;6.63;1.10;;;;;;;8.20;77.82;99595.22;5049878;28;20060;-68
2021/10/23 00:15:27;;;;;;;5.80;1.17;;;;;;;8.17;78.39;99595.56;5037318;28;20030;-68
2021/10/23 00:17:53;;;;;;;7.18;1.20;;;;;;;8.24;78.25;99602.81;5037778;28;20035;-68
2021/10/23 00:20:18;;;;;;;9.68;1.50;;;;;;;8.23;78.36;99603.00;5051623;28;20063;-68
2021/10/23 00:22:44;;;;;;;3.10;0.90;;;;;;;8.17;78.53;99601.78;5035369;28;20036;-68
2021/10/23 00:25:09;;;;;;;7.57;1.55;;;;;;;8.13;78.75;99593.22;5036758;28;20475;-68
2021/10/23 00:27:35;;;;;;;8.45;1.40;;;;;;;8.08;79.23;99603.66;5048215;28;20033;-68
2021/10/23 00:30:01;;;;;;;7.03;1.38;;;;;;;8.15;79.63;99605.66;5037780;28;20139;-68
2021/10/23 00:32:27;;;;;;;8.05;1.60;;;;;;;7.96;80.14;99591.50;5050975;28;20070;-68
2021/10/23 00:34:52;;;;;;;4.47;1.35;;;;;;;8.03;80.61;99606.00;5048031;28;20036;-68
2021/10/23 00:37:18;;;;;;;4.88;1.30;;;;;;;8.01;80.98;99607.19;5051737;28;20021;-68
2021/10/23 00:39:44;;;;;;;8.88;1.30;;;;;;;8.00;81.06;99610.91;5050787;28;20025;-68
2021/10/23 00:42:09;;;;;;;5.15;1.67;;;;;;;7.99;81.17;99607.38;5043716;28;20152;-68
2021/10/23 00:44:38;;;;;;;6.78;1.40;;;;;;;7.85;82.27;99598.06;5045850;28;20029;-68
2021/10/23 00:47:13;;;;;;;5.10;1.00;;;;;;;7.86;82.58;99607.00;5032197;28;20025;-68
2021/10/23 00:49:39;;;;;;;5.82;1.60;;;;;;;7.83;82.61;99610.88;5033622;28;20345;-68
2021/10/23 00:52:06;;;;;;;5.90;0.90;;;;;;;7.82;83.63;99614.56;5040995;28;20025;-68
2021/10/23 00:54:33;;;;;;;6.35;1.23;;;;;;;7.76;83.98;99622.47;5047588;28;20075;-68
2021/10/23 00:56:59;;;;;;;11.50;1.55;;;;;;;7.67;83.48;99611.66;5043995;28;20065;-68
2021/10/23 00:59:25;;;;;;;6.47;1.15;;;;;;;7.67;83.98;99619.75;5040729;28;20029;-68
2021/10/23 01:01:51;;;;;;;6.15;1.27;;;;;;;7.68;83.73;99623.31;5048880;28;20103;-68
2021/10/23 01:04:19;;;;;;;3.92;1.17;;;;;;;7.61;84.46;99620.41;5055115;28;20096;-68
2021/10/23 01:06:44;;;;;;;7.97;1.25;;;;;;;7.64;84.85;99622.78;5054263;28;20120;-68
2021/10/23 01:09:10;;;;;;;8.73;1.25;;;;;;;7.57;84.56;99607.44;5050237;28;20023;-68
2021/10/23 01:11:35;;;;;;;7.68;1.38;;;;;;;7.52;84.98;99621.41;5054355;28;20063;-68
2021/10/23 01:14:01;;;;;;;4.97;1.23;;;;;;;7.38;85.12;99595.09;5053092;28;20076;-68
2021/10/23 01:16:26;;;;;;;10.65;1.15;;;;;;;7.34;85.70;99607.22;5047637;28;20495;-68
2021/10/23 01:18:52;;;;;;;5.55;1.48;;;;;;;7.35;85.95;99595.44;5048103;28;20047;-68
2021/10/23 01:21:21;;;;;;;2.97;1.10;;;;;;;7.51;85.81;99618.88;5051375;28;20481;-68
2021/10/23 01:23:47;;;;;;;5.68;1.10;;;;;;;7.52;85.80;99629.50;5050749;28;20035;-68
2021/10/23 01:26:12;;;;;;;5.07;1.38;;;;;;;7.56;85.91;99630.00;5045303;28;20021;-68
2021/10/23 01:28:37;;;;;;;7.22;1.40;;;;;;;7.63;85.78;99626.47;5035386;28;20105;-68
2021/10/23 01:31:03;;;;;;;7.07;1.40;;;;;;;7.60;85.77;99629.50;5046531;28;20056;-68
2021/10/23 01:33:28;;;;;;;5.75;1.40;;;;;;;7.31;86.68;99588.66;5051088;28;20509;-68
2021/10/23 01:36:05;;;;;;;4.03;1.20;;;;;;;7.47;87.00;99618.38;5054556;28;20056;-68
2021/10/23 01:38:31;;;;;;;7.47;1.48;;;;;;;7.52;87.01;99644.78;5044125;28;20075;-68
2021/10/23 01:40:56;;;;;;;4.85;1.40;;;;;;;7.57;87.48;99632.53;5054365;28;20406;-69
2021/10/23 01:43:21;;;;;;;7.30;1.48;;;;;;;7.54;87.53;99635.53;5035628;28;20028;-69
2021/10/23 01:45:46;;;;;;;4.22;1.60;;;;;;;7.57;87.70;99637.06;5033158;28;20124;-69
2021/10/23 01:48:12;;;;;;;2.72;1.20;;;;;;;7.51;87.96;99638.56;5043173;28;20540;-68
2021/10/23 01:50:37;;;;;;;6.07;1.58;;;;;;;7.44;88.16;99619.53;5035513;28;20030;-68
2021/10/23 01:53:02;;;;;;;5.15;1.27;;;;;;;7.48;88.66;99636.19;5048231;28;20386;-68
2021/10/23 01:55:28;;;;;;;7.50;1.35;;;;;;;7.46;89.41;99641.72;5051819;28;20033;-68
2021/10/23 01:57:56;;;;;;;11.57;1.48;;;;;;;7.36;89.68;99645.56;5052555;28;20029;-68
2021/10/23 02:00:21;;;;;;;9.38;1.70;;;;;;;7.37;90.29;99645.41;5043594;28;20090;-68
2021/10/23 02:02:46;;;;;;;2.13;0.85;;;;;;;7.25;90.57;99644.84;5050205;28;20425;-68
2021/10/23 02:05:12;;;;;;;5.85;1.50;;;;;;;7.17;91.47;99649.34;5042696;28;20021;-68
2021/10/23 02:07:37;;;;;;;6.28;1.38;;;;;;;7.12;91.68;99644.44;5044495;28;20056;-68
2021/10/23 02:10:05;;;;;;;6.70;1.50;;;;;;;7.15;92.24;99638.75;5052457;28;20094;-68
2021/10/23 02:12:30;;;;;;;2.38;1.25;;;;;;;7.09;92.57;99635.84;5052754;28;20032;-68
2021/10/23 02:14:56;;;;;;;4.88;1.10;;;;;;;7.18;92.69;99643.81;5053175;28;20100;-68
2021/10/23 02:17:21;;;;;;;6.60;1.58;;;;;;;7.36;91.13;99641.03;5050974;28;20027;-68
2021/10/23 02:19:46;;;;;;;5.53;1.60;;;;;;;7.32;90.74;99641.53;5052369;28;20474;-68
2021/10/23 02:22:12;;;;;;;8.88;2.00;;;;;;;7.39;90.33;99645.25;5051945;28;20489;-68
2021/10/23 02:24:37;;;;;;;10.00;2.08;;;;;;;7.34;90.09;99636.81;5052864;28;20119;-68
2021/10/23 02:27:02;;;;;;;7.10;1.60;;;;;;;7.52;89.58;99647.47;5044020;28;20036;-68
2021/10/23 02:29:28;;;;;;;5.20;2.22;;;;;;;7.49;89.66;99650.50;5040468;28;20025;-68
2021/10/23 02:31:53;;;;;;;7.80;2.67;;;;;;;7.29;90.07;99621.16;5037643;28;20060;-68
2021/10/23 02:34:19;;;;;;;5.80;1.65;;;;;;;7.52;90.20;99644.78;5035741;28;20100;-68
2021/10/23 02:36:44;;;;;;;7.25;1.67;;;;;;;7.43;90.28;99652.00;5047320;28;20033;-68
2021/10/23 02:39:10;;;;;;;4.53;1.90;;;;;;;7.35;90.71;99657.34;5040289;28;20086;-68
2021/10/23 02:41:35;;;;;;;5.68;1.77;;;;;;;7.35;91.03;99655.50;5048194;28;20024;-68
2021/10/23 02:44:00;;;;;;;7.00;1.85;;;;;;;7.20;91.16;99638.25;5048849;28;20363;-68
2021/10/23 02:46:26;;;;;;;6.60;1.70;;;;;;;7.18;91.12;99637.59;5050909;28;20482;-68
2021/10/23 02:48:51;;;;;;;7.50;1.50;;;;;;;7.25;91.03;99655.59;5036526;28;20107;-68
2021/10/23 02:51:17;;;;;;;5.43;2.03;;;;;;;7.48;91.06;99663.13;5040604;28;20128;-68
2021/10/23 02:53:42;;;;;;;8.13;2.33;;;;;;;7.23;90.88;99635.22;5033243;28;20033;-67
2021/10/23 02:56:08;;;;;;;4.65;1.80;;;;;;;7.39;90.52;99666.78;5045566;28;20051;-68
2021/10/23 02:58:33;;;;;;;8.00;1.92;;;;;;;7.27;90.96;99654.63;5049925;28;20044;-68
2021/10/23 03:00:59;;;;;;;7.45;2.92;;;;;;;7.13;91.04;99638.06;5052182;28;20029;-68
2021/10/23 03:03:24;;;;;;;9.50;2.80;;;;;;;7.31;91.50;99658.66;5040044;28;20025;-68
2021/10/23 03:05:49;;;;;;;8.35;2.20;;;;;;;7.35;91.46;99666.25;5034161;28;20116;-68
2021/10/23 03:08:15;;;;;;;11.68;2.13;;;;;;;7.41;91.12;99672.84;5047169;28;20100;-68
2021/10/23 03:10:41;;;;;;;4.40;1.98;;;;;;;7.23;91.59;99646.88;5048363;28;20040;-68
2021/10/23 03:13:06;;;;;;;6.00;1.70;;;;;;;7.45;91.01;99671.53;5044677;28;20052;-68
2021/10/23 03:15:32;;;;;;;11.10;2.55;;;;;;;7.39;91.15;99673.03;5046452;28;20052;-68
2021/10/23 03:17:57;;;;;;;8.57;1.58;;;;;;;7.18;91.28;99643.81;5038595;28;20033;-68
2021/10/23 03:20:22;;;;;;;8.60;1.90;;;;;;;7.31;91.56;99680.19;5037929;28;20020;-68
2021/10/23 03:22:48;;;;;;;5.10;1.30;;;;;;;7.34;91.78;99688.81;5042078;28;20437;-68
2021/10/23 03:25:13;;;;;;;6.32;1.92;;;;;;;7.29;92.19;99688.44;5049586;28;20044;-68
2021/10/23 03:27:39;;;;;;;6.55;1.77;;;;;;;7.31;91.80;99685.56;5048990;28;20027;-68
2021/10/23 03:30:06;;;;;;;4.70;1.58;;;;;;;7.32;92.37;99682.72;5039948;28;20128;-68
2021/10/23 03:32:32;;;;;;;5.60;1.90;;;;;;;7.28;92.38;99664.38;5045303;28;20478;-68
2021/10/23 03:35:00;;;;;;;7.97;1.80;;;;;;;7.22;92.39;99674.78;5042084;28;20048;-68
2021/10/23 03:37:29;;;;;;;7.32;1.88;;;;;;;7.29;92.93;99691.13;5052315;28;20024;-68
2021/10/23 03:39:55;;;;;;;4.72;1.60;;;;;;;7.36;92.73;99680.56;5051186;28;20399;-68
2021/10/23 03:42:20;;;;;;;6.55;1.80;;;;;;;7.32;92.80;99680.03;5046079;28;20021;-68
2021/10/23 03:44:45;;;;;;;9.35;2.13;;;;;;;7.15;93.06;99656.72;5049077;28;20032;-68
2021/10/23 03:47:10;;;;;;;6.40;2.35;;;;;;;7.37;92.86;99680.41;5040945;28;20021;-68
2021/10/23 03:49:36;;;;;;;7.43;1.63;;;;;;;7.41;92.77;99686.31;5047562;28;20398;-68
2021/10/23 03:52:02;;;;;;;5.40;1.88;;;;;;;7.35;93.78;99676.19;5051607;28;20031;-68
2021/10/23 03:54:27;;;;;;;8.27;2.10;;;;;;;7.40;93.84;99684.63;5044474;28;20372;-68
2021/10/23 03:56:53;;;;;;;9.15;2.40;;;;;;;7.09;94.19;99660.91;5051613;28;20029;-68
2021/10/23 03:59:18;;;;;;;6.55;1.90;;;;;;;7.33;93.80;99688.97;5054985;28;20021;-68
2021/10/23 04:01:44;;;;;;;3.53;1.52;;;;;;;7.37;94.03;99693.88;5052909;28;20094;-68
2021/10/23 04:04:09;;;;;;;5.07;1.80;;;;;;;7.39;94.34;99688.34;5048771;28;20479;-69
2021/10/23 04:06:34;;;;;;;4.32;1.75;;;;;;;7.42;93.73;99702.31;5053138;28;20025;-67
2021/10/23 04:09:00;;;;;;;6.88;1.73;;;;;;;7.45;93.46;99690.38;5037085;28;20104;-68
2021/10/23 04:11:25;;;;;;;4.95;1.60;;;;;;;7.47;93.48;99691.06;5042578;28;20449;-68
2021/10/23 04:13:50;;;;;;;7.55;1.85;;;;;;;7.54;93.25;99691.25;5053466;28;20033;-68
2021/10/23 04:16:15;;;;;;;5.38;1.73;;;;;;;7.47;93.15;99696.44;5053206;28;20374;-68
2021/10/23 04:18:41;;;;;;;3.78;1.80;;;;;;;7.51;92.98;99694.25;5054070;28;20087;-69
2021/10/23 04:21:06;;;;;;;4.80;1.58;;;;;;;7.22;93.42;99679.31;5040198;28;20383;-70
2021/10/23 04:23:31;;;;;;;6.13;1.92;;;;;;;7.16;93.85;99671.91;5034238;28;20466;-68
2021/10/23 04:25:57;;;;;;;7.32;1.67;;;;;;;7.32;94.71;99706.13;5047203;28;20479;-69
2021/10/23 04:28:22;;;;;;;5.10;1.95;;;;;;;7.35;94.75;99703.09;5054237;28;20025;-69
2021/10/23 04:30:48;;;;;;;5.57;2.10;;;;;;;7.38;94.15;99702.78;5048097;28;20025;-68
2021/10/23 04:33:13;;;;;;;6.85;2.13;;;;;;;7.36;94.03;99711.03;5054633;28;20066;-68
2021/10/23 04:35:38;;;;;;;5.63;1.75;;;;;;;7.34;94.40;99706.81;5055420;28;20035;-68
2021/10/23 04:38:03;;;;;;;10.95;1.90;;;;;;;7.34;94.23;99698.75;5053281;28;20029;-69
2021/10/23 04:40:29;;;;;;;5.13;1.80;;;;;;;7.27;94.38;99690.44;5048290;28;20021;-69
2021/10/23 04:42:54;;;;;;;10.35;1.88;;;;;;;7.37;94.79;99710.03;5050293;28;20405;-73
2021/10/23 04:45:19;;;;;;;5.55;2.03;;;;;;;7.33;94.42;99708.63;5040304;28;20017;-71
2021/10/23 04:47:45;;;;;;;5.18;2.15;;;;;;;7.33;94.75;99710.50;5049948;28;20029;-70
2021/10/23 04:50:10;;;;;;;4.65;1.83;;;;;;;7.38;93.16;99700.09;5055181;28;20122;-73
2021/10/23 04:52:35;;;;;;;5.78;1.67;;;;;;;7.49;93.52;99724.03;5055356;28;20024;-71
2021/10/23 04:55:01;;;;;;;6.80;2.05;;;;;;;7.18;93.90;99678.81;5053048;28;20013;-73
2021/10/23 04:57:26;;;;;;;7.63;2.20;;;;;;;7.35;93.66;99679.72;5051183;28;20155;-76
2021/10/23 04:59:51;;;;;;;11.77;2.85;;;;;;;7.64;93.05;99716.19;5055713;28;20025;-71
2021/10/23 05:02:17;;;;;;;8.02;2.03;;;;;;;7.64;92.85;99719.72;5055727;28;20024;-70
2021/10/23 05:04:42;;;;;;;4.22;1.80;;;;;;;7.63;92.95;99718.06;5056095;28;20025;-71
2021/10/23 05:07:08;;;;;;;7.72;2.30;;;;;;;7.54;93.04;99710.94;5056192;28;20076;-74
2021/10/23 05:09:33;;;;;;;8.77;2.72;;;;;;;7.62;92.93;99718.19;5044381;28;20026;-74
2021/10/23 05:11:58;;;;;;;6.22;1.80;;;;;;;7.57;92.50;99699.84;5055917;28;20106;-70
2021/10/23 05:14:24;;;;;;;6.93;2.08;;;;;;;7.47;92.28;99701.81;5050583;28;20640;-70
2021/10/23 05:16:49;;;;;;;6.68;1.85;;;;;;;7.65;92.71;99721.44;5053765;28;20043;-67
2021/10/23 05:19:14;;;;;;;5.03;2.17;;;;;;;7.44;92.96;99707.50;5053924;28;20024;-67
2021/10/23 05:21:40;;;;;;;5.82;2.13;;;;;;;7.51;93.39;99716.63;5055803;28;20032;-72
2021/10/23 05:24:05;;;;;;;5.75;2.38;;;;;;;7.46;93.81;99722.50;5055147;28;20071;-75
2021/10/23 05:26:31;;;;;;;4.88;2.25;;;;;;;7.34;94.56;99722.97;5050046;28;20100;-75
2021/10/23 05:28:56;;;;;;;10.05;2.30;;;;;;;7.14;95.34;99695.41;5054684;28;20108;-75
2021/10/23 05:31:21;;;;;;;10.75;2.33;;;;;;;7.05;95.38;99712.50;5065239;22;20053;-74
2021/10/23 05:33:47;;;;;;;6.85;2.30;;;;;;;7.08;96.67;99714.91;5047272;28;20037;-80
2021/10/23 05:36:12;;;;;;;10.07;2.58;;;;;;;7.07;96.94;99722.09;5053947;28;20028;-77
2021/10/23 05:38:37;;;;;;;7.78;2.20;;;;;;;6.73;97.91;99719.34;5054879;28;20017;-76
2021/10/23 05:41:03;;;;;;;8.93;2.30;;;;;;;6.56;99.27;99713.84;5053584;28;20163;-76
2021/10/23 05:43:28;;;;;;;9.05;2.47;;;;;;;6.58;100.00;99741.41;5051163;28;20169;-75
2021/10/23 05:45:54;;;;;;;8.35;2.60;;;;;;;6.44;100.00;99719.59;5054331;28;20489;-75
2021/10/23 05:48:19;;;;;;;7.53;2.10;;;;;;;6.47;100.00;99724.66;5046118;28;20494;-75
2021/10/23 05:50:44;;;;;;;6.63;2.03;;;;;;;6.51;100.00;99731.44;5053406;28;20393;-76
2021/10/23 05:53:10;;;;;;;11.82;2.22;;;;;;;6.53;100.00;99726.75;5053379;28;20025;-76
2021/10/23 05:55:35;;;;;;;10.50;2.15;;;;;;;6.69;100.00;99740.34;5051192;28;20067;-66
2021/10/23 05:58:02;;;;;;;9.40;2.33;;;;;;;6.70;100.00;99747.38;5050972;28;20053;-65
2021/10/23 06:00:28;;;;;;;13.75;2.97;;;;;;;6.78;100.00;99752.84;5052375;28;20563;-65
2021/10/23 06:02:55;;;;;;;9.57;2.63;;;;;;;6.74;100.00;99754.16;5050440;28;20056;-65
2021/10/23 06:05:22;;;;;;;6.93;2.55;;;;;;;6.73;100.00;99760.56;5043471;28;20061;-66
2021/10/23 06:07:47;;;;;;;8.45;2.10;;;;;;;6.73;99.91;99770.44;5047023;28;20082;-65
2021/10/23 06:10:13;;;;;;;8.65;2.40;;;;;;;6.83;99.91;99773.88;5051816;28;20478;-65
2021/10/23 06:12:39;;;;;;;6.68;2.17;;;;;;;6.74;99.78;99759.53;5048777;28;20021;-65
2021/10/23 06:15:06;;;;;;;6.28;2.25;;;;;;;7.04;98.74;99760.09;5047923;28;20466;-65
2021/10/23 06:17:32;;;;;;;6.55;2.22;;;;;;;7.08;97.28;99774.94;5045228;28;20025;-65
2021/10/23 06:19:57;;;;;;;9.00;2.92;;;;;;;7.09;96.96;99778.47;5042455;28;20104;-65
2021/10/23 06:22:23;;;;;;;12.13;3.08;;;;;;;7.03;97.44;99777.25;5041621;28;20116;-66
2021/10/23 06:24:48;;;;;;;9.45;3.28;;;;;;;6.94;98.12;99780.88;5047574;28;20029;-66
2021/10/23 06:27:14;;;;;;;4.95;1.88;;;;;;;6.91;98.27;99786.56;5050200;28;20036;-66
2021/10/23 06:29:39;;;;;;;8.98;2.28;;;;;;;6.84;98.47;99780.09;5048296;28;20398;-66
2021/10/23 06:32:05;;;;;;;7.63;2.55;;;;;;;6.91;99.12;99794.63;5045983;28;20033;-65
2021/10/23 06:34:31;;;;;;;8.95;2.90;;;;;;;6.89;98.86;99800.19;5045678;28;20262;-65
2021/10/23 06:36:56;;;;;;;5.90;2.65;;;;;;;6.81;98.93;99792.03;5040053;28;20025;-75
2021/10/23 06:39:22;;;;;;;7.45;2.78;;;;;;;6.77;99.10;99794.19;5045817;28;20024;-74
2021/10/23 06:41:47;;;;;;;12.68;2.75;;;;;;;6.80;99.45;99793.03;5056701;28;20025;-75
2021/10/23 06:44:13;;;;;;;5.32;2.38;;;;;;;6.78;99.38;99801.25;5051654;28;20021;-77
2021/10/23 06:46:40;;;;;;;8.88;2.67;;;;;;;6.73;99.34;99798.19;5038595;28;20052;-71
2021/10/23 06:49:06;;;;;;;10.85;2.63;;;;;;;6.82;99.48;99811.72;5050729;28;20021;-73
2021/10/23 06:51:32;;;;;;;9.15;3.03;;;;;;;6.82;99.73;99798.28;5045364;28;20465;-71
2021/10/23 06:53:58;;;;;;;7.82;3.38;;;;;;;7.30;98.60;99819.31;5034395;28;20391;-71
2021/10/23 06:56:24;;;;;;;10.82;4.78;;;;;;;8.54;91.34;99797.34;5050278;28;20032;-72
2021/10/23 06:58:50;;;;;;;12.23;3.70;;;;;;;10.56;78.59;99791.84;5034549;28;20112;-73
2021/10/23 07:01:17;;;;;;;8.68;2.50;;;;;;;12.16;71.78;99792.56;5049237;28;20541;-70
2021/10/23 07:03:43;;;;;;;4.57;2.20;;;;;;;14.00;61.36;99785.44;5045949;28;20033;-74
2021/10/23 07:06:08;;;;;;;7.82;2.28;;;;;;;15.59;57.61;99795.00;5055565;28;20442;-73
2021/10/23 07:08:34;;;;;;;8.77;2.70;;;;;;;16.27;54.79;99803.72;5036709;28;20097;-75
2021/10/23 07:10:59;;;;;;;10.65;3.08;;;;;;;17.50;50.81;99803.38;5042678;28;20733;-72
2021/10/23 07:13:24;;;;;;;7.40;2.67;;;;;;;17.51;50.02;99802.31;5053577;28;20547;-69
2021/10/23 07:15:50;;;;;;;6.35;2.45;;;;;;;17.15;49.72;99803.00;5052109;28;20070;-70
2021/10/23 07:18:15;;;;;;;8.27;2.83;;;;;;;17.49;49.79;99801.69;5051328;28;20037;-73
2021/10/23 07:20:41;;;;;;;8.80;2.72;;;;;;;17.42;49.87;99811.88;5043222;28;20077;-72
2021/10/23 07:23:06;;;;;;;11.10;3.58;;;;;;;17.21;49.42;99815.81;5052731;28;20025;-73
2021/10/23 07:25:32;;;;;;;6.72;3.08;;;;;;;16.86;51.22;99838.09;5048344;28;20036;-71
2021/10/23 07:27:57;;;;;;;8.07;2.63;;;;;;;17.58;48.58;99820.53;5038057;28;20036;-74
2021/10/23 07:30:23;;;;;;;8.73;2.72;;;;;;;18.20;46.47;99826.06;5042052;28;20085;-71
2021/10/23 07:32:49;;;;;;;5.00;2.47;;;;;;;18.69;44.14;99833.25;5040567;28;20083;-73
2021/10/23 07:35:14;;;;;;;7.75;2.55;;;;;;;17.70;46.38;99836.00;5047037;28;20370;-74
2021/10/23 07:37:40;;;;;;;8.75;3.15;;;;;;;17.84;47.28;99841.38;5045467;28;20078;-70
2021/10/23 07:40:07;;;;;;;8.20;2.45;;;;;;;17.90;45.42;99848.72;5045709;28;20071;-72
2021/10/23 07:42:34;;;;;;;8.80;2.90;;;;;;;17.79;46.04;99852.16;5046365;28;20031;-70
2021/10/23 07:44:59;;;;;;;8.18;2.80;;;;;;;18.96;43.86;99832.91;5051579;28;20040;-72
2021/10/23 07:47:25;;;;;;;9.73;2.70;;;;;;;20.33;40.85;99849.19;5044739;28;20025;-75
2021/10/23 07:49:50;;;;;;;7.13;2.70;;;;;;;20.95;39.15;99844.97;5051971;28;20035;-73
2021/10/23 07:52:17;;;;;;;7.38;2.70;;;;;;;21.73;38.35;99851.59;5038687;28;20092;-75
2021/10/23 07:54:42;;;;;;;8.32;2.25;;;;;;;22.09;36.36;99852.97;5048057;28;20028;-74
2021/10/23 07:57:08;;;;;;;8.45;2.15;;;;;;;22.57;36.15;99863.56;5043784;28;20470;-78
2021/10/23 07:59:34;;;;;;;6.43;2.20;;;;;;;19.87;40.68;99869.28;5040443;28;20123;-74
2021/10/23 08:02:01;;;;;;;8.88;2.28;;;;;;;20.32;39.40;99853.00;5036403;28;20032;-75
2021/10/23 08:04:28;;;;;;;5.80;2.03;;;;;;;18.55;42.18;99870.97;5048289;28;20034;-75
2021/10/23 08:06:54;;;;;;;6.60;2.60;;;;;;;16.99;46.84;99871.91;5052327;28;20036;-76
2021/10/23 08:09:19;;;;;;;6.38;2.42;;;;;;;16.38;47.27;99879.50;5049741;28;20030;-73
2021/10/23 08:11:45;;;;;;;8.38;2.30;;;;;;;15.07;51.11;99888.31;5063141;28;20319;-73
2021/10/23 08:14:12;;;;;;;9.70;2.30;;;;;;;14.60;53.09;99883.75;5059573;28;20052;-73
2021/10/23 08:16:38;;;;;;;8.50;2.40;;;;;;;13.48;57.47;99881.94;5059814;28;20021;-69
2021/10/23 08:19:04;;;;;;;5.55;2.45;;;;;;;13.34;59.55;99872.84;5054526;28;20018;-73
2021/10/23 08:21:30;;;;;;;9.85;1.95;;;;;;;13.32;60.38;99885.78;5056692;28;20047;-74
2021/10/23 08:23:55;;;;;;;4.38;2.25;;;;;;;13.40;60.47;99874.78;5066408;28;20032;-74
2021/10/23 08:26:21;;;;;;;7.60;1.90;;;;;;;13.87;59.24;99894.19;5065296;28;20025;-71
2021/10/23 08:28:46;;;;;;;5.13;2.40;;;;;;;13.56;60.17;99885.38;5038834;28;20044;-71
2021/10/23 08:31:12;;;;;;;7.57;2.20;;;;;;;13.17;61.64;99866.78;5038210;28;20049;-72
2021/10/23 08:33:37;;;;;;;6.53;2.33;;;;;;;13.37;60.93;99881.44;5049236;28;20140;-74
2021/10/23 08:36:03;;;;;;;8.70;2.25;;;;;;;13.65;59.37;99906.97;5035088;28;20025;-73
2021/10/23 08:38:28;;;;;;;9.20;2.30;;;;;;;13.15;61.06;99891.44;5041958;28;20017;-73
2021/10/23 08:40:55;;;;;;;7.15;2.47;;;;;;;13.13;61.95;99906.25;5048738;28;20509;-74
2021/10/23 08:43:21;;;;;;;6.45;1.85;;;;;;;12.78;62.32;99894.34;5039955;28;20022;-72
2021/10/23 08:45:47;;;;;;;5.88;2.20;;;;;;;12.89;62.98;99900.16;5050187;28;20021;-73
2021/10/23 08:48:15;;;;;;;10.02;2.70;;;;;;;12.70;64.59;99909.72;5047958;28;20029;-72
2021/10/23 08:50:41;;;;;;;8.85;2.20;;;;;;;12.61;63.47;99899.19;5048443;28;20034;-71
2021/10/23 08:53:07;;;;;;;9.18;2.40;;;;;;;12.56;65.01;99913.31;5050372;28;20025;-69
2021/10/23 08:55:33;;;;;;;6.22;1.80;;;;;;;12.80;63.72;99914.88;5046665;28;20129;-67
2021/10/23 08:57:58;;;;;;;7.10;2.45;;;;;;;13.28;61.50;99909.81;5032204;28;20383;-67
2021/10/23 09:00:24;;;;;;;6.63;2.38;;;;;;;13.33;60.85;99912.75;5040550;28;20029;-67
2021/10/23 09:02:49;;;;;;;5.85;2.00;;;;;;;13.61;60.01;99911.97;5043237;28;20040;-67
2021/10/23 09:05:15;;;;;;;4.97;2.10;;;;;;;13.25;61.16;99923.72;5046050;28;20488;-67
2021/10/23 09:07:51;;;;;;;7.95;1.88;;;;;;;13.21;61.36;99921.59;5051868;28;20702;-67
2021/10/23 09:10:34;;;;;;;6.57;2.42;;;;;;;13.17;62.13;99921.13;5046308;28;20025;-67
2021/10/23 09:13:04;;;;;;;7.57;2.22;;;;;;;13.51;61.43;99930.50;5054480;28;20025;-67
2021/10/23 09:15:41;;;;;;;11.23;2.33;;;;;;;13.96;59.51;99920.19;5056226;28;20029;-67
2021/10/23 09:18:08;;;;;;;6.15;2.30;;;;;;;16.91;52.42;99915.91;5055188;28;20025;-67
2021/10/23 09:20:41;;;;;;;6.97;1.92;;;;;;;17.91;48.18;99905.97;5051538;28;20029;-67
2021/10/23 09:23:18;;;;;;;5.70;1.83;;;;;;;18.38;47.76;99897.31;5045167;28;20116;-67
2021/10/23 09:25:45;;;;;;;6.93;1.92;;;;;;;20.87;42.58;99892.97;5042549;28;20032;-67
2021/10/23 09:28:13;;;;;;;5.72;1.80;;;;;;;22.61;38.17;99895.91;5047720;28;20509;-66
2021/10/23 09:30:45;;;;;;;7.07;1.80;;;;;;;23.65;36.56;99894.03;5053158;28;20505;-67
2021/10/23 09:33:23;;;;;;;3.70;1.42;;;;;;;25.65;33.39;99889.50;5050625;28;20078;-68
2021/10/23 09:35:52;;;;;;;4.97;1.55;;;;;;;25.85;31.19;99885.94;5038512;28;20449;-68
2021/10/23 09:38:19;;;;;;;4.78;1.90;;;;;;;26.58;30.60;99891.91;5049215;28;20028;-68
2021/10/23 09:40:47;;;;;;;5.88;2.00;;;;;;;23.30;33.46;99903.63;5053532;28;20037;-69
2021/10/23 09:43:14;;;;;;;7.72;1.95;;;;;;;21.62;38.20;99913.13;5040538;28;20025;-69
2021/10/23 09:45:59;;;;;;;7.15;2.45;;;;;;;21.50;36.94;99906.84;5050780;28;20021;-68
2021/10/23 09:48:38;;;;;;;4.80;1.83;;;;;;;20.83;38.26;99907.44;5048709;28;20033;-68
2021/10/23 09:51:12;;;;;;;;;;;;;;;18.76;42.88;99915.47;5044932;28;20036;-67
2021/10/23 09:53:39;;;;;;;6.22;1.90;;;;;;;17.81;45.45;99913.84;5036479;28;20418;-67
2021/10/23 09:56:08;;;;;;;6.60;1.80;;;;;;;16.68;48.00;99930.88;5044125;28;20612;-67
2021/10/23 09:58:34;;;;;;;5.10;1.85;;;;;;;15.91;50.09;99927.88;5048492;28;20025;-66
2021/10/23 10:01:00;;;;;;;7.88;2.05;;;;;;;14.61;53.77;99938.03;5036592;28;20036;-66
2021/10/23 10:03:25;;;;;;;6.35;1.92;;;;;;;14.14;54.53;99936.03;5039320;28;20029;-66
2021/10/23 10:05:53;;;;;;;8.07;1.92;;;;;;;13.48;55.95;99920.00;5043746;28;20087;-66
2021/10/23 10:08:18;;;;;;;5.50;1.58;;;;;;;13.52;56.50;99940.34;5050388;28;20021;-66
2021/10/23 10:10:47;;;;;;;5.35;1.67;;;;;;;13.47;54.91;99938.22;5050470;28;20110;-66
2021/10/23 10:13:19;;;;;;;5.95;1.70;;;;;;;14.12;53.79;99938.97;5050924;28;20081;-66
2021/10/23 10:15:58;;;;;;;7.55;1.95;;;;;;;17.07;46.67;99929.91;5045689;28;20040;-66
2021/10/23 10:18:24;;;;;;;;;;;;;;;20.30;40.52;99929.41;5047295;28;20052;-66
2021/10/23 10:20:56;;;;;;;7.93;2.10;;;;;;;22.14;35.46;99923.03;5042752;28;19948;-66
2021/10/23 10:23:38;;;;;;;5.72;1.90;;;;;;;23.23;33.37;99900.25;5042505;28;20503;-66
2021/10/23 10:26:25;;;;;;;8.35;2.22;;;;;;;25.05;30.52;99916.81;5051818;28;20053;-69
2021/10/23 10:32:04;;;;;;;6.07;1.70;;;;;;;25.92;28.71;99903.13;5056518;28;20395;-69
2021/10/23 10:43:01;;;;;;;3.00;1.00;;;;;;;27.98;27.47;99899.16;5054062;28;20032;-69
2021/10/23 10:45:34;;;;;;;5.13;1.42;;;;;;;28.82;26.77;99896.91;5050359;28;20112;-69
2021/10/23 10:48:14;;;;;;;5.15;1.30;;;;;;;27.85;27.36;99897.06;5048538;28;20082;-69
2021/10/23 10:50:46;;;;;;;4.20;1.23;;;;;;;28.27;27.19;99896.41;5035463;28;20033;-70
2021/10/23 10:53:27;;;;;;;5.57;1.27;;;;;;;27.56;27.65;99892.25;5035713;28;20028;-69
2021/10/23 10:55:58;;;;;;;4.93;1.40;;;;;;;24.76;31.63;99903.41;5042475;28;20029;-69
2021/10/23 10:58:44;;;;;;;5.18;1.38;;;;;;;24.25;32.75;99898.38;5041580;28;20021;-68
2021/10/23 11:01:21;;;;;;;4.75;1.60;;;;;;;26.20;30.19;99893.41;5034065;28;20039;-68
2021/10/23 11:03:51;;;;;;;4.55;1.45;;;;;;;24.59;31.46;99900.00;5046880;28;20025;-68
2021/10/23 11:06:35;;;;;;;4.15;1.33;;;;;;;23.63;32.61;99891.53;5048208;28;20013;-69
2021/10/23 11:09:16;;;;;;;5.80;1.33;;;;;;;20.63;37.29;99911.44;5048165;28;20061;-69
2021/10/23 11:11:47;;;;;;;4.30;1.27;;;;;;;19.22;40.09;99905.75;5046259;28;20378;-69
2021/10/23 11:14:19;;;;;;;5.07;1.50;;;;;;;19.12;39.79;99895.34;5040988;28;20025;-67
2021/10/23 11:16:45;;;;;;;4.13;1.20;;;;;;;21.02;37.06;99881.44;5043499;28;20119;-68
2021/10/23 11:19:16;;;;;;;7.05;1.25;;;;;;;24.39;31.33;99884.94;5030829;28;20036;-68
2021/10/23 11:21:42;;;;;;;6.05;1.25;;;;;;;26.34;27.88;99877.00;5037338;28;20060;-69
2021/10/23 11:24:07;;;;;;;4.47;1.38;;;;;;;24.93;29.01;99890.16;5039277;28;20118;-68
2021/10/23 11:26:33;;;;;;;3.63;1.10;;;;;;;22.50;32.02;99877.53;5032627;28;20033;-69
2021/10/23 11:28:58;;;;;;;6.22;1.00;;;;;;;20.45;34.91;99892.31;5042183;28;20032;-69
2021/10/23 11:31:24;;;;;;;5.78;1.55;;;;;;;19.27;37.84;99883.97;5048026;28;20116;-67
2021/10/23 11:33:50;;;;;;;3.40;1.20;;;;;;;18.93;40.04;99882.75;5046650;28;20031;-67
2021/10/23 11:36:17;;;;;;;5.97;1.30;;;;;;;21.31;36.18;99890.50;5047055;28;20398;-67
2021/10/23 11:38:52;;;;;;;3.78;0.93;;;;;;;24.64;30.96;99867.63;5039465;28;20028;-67
2021/10/23 11:41:25;;;;;;;3.08;1.05;;;;;;;25.83;27.41;99882.56;5042150;28;20027;-68
2021/10/23 11:44:08;;;;;;;3.22;0.77;;;;;;;26.43;26.11;99853.91;5034958;28;20047;-68
2021/10/23 11:46:35;;;;;;;7.88;1.00;;;;;;;24.32;28.98;99875.19;5031157;28;20063;-67
2021/10/23 11:49:07;;;;;;;5.35;0.95;;;;;;;22.33;32.09;99879.53;5040333;28;20017;-68